Aérodrome :
LOGIN :

S'inscrire | Disclaimer

   EN    FR    IT 

 










Légende :    VFR   VFR Marginal   IFR   IFR Intensif   IFR Très Intensif
Visi : 
Plafond : 
>= 8 km
>= 3000ft
5 à 8 km
1000 à 3000 ft
1500m à 5 km
500 à 1000 ft
800 à 1500m
200 à 500 ft
< 800m
< 200 ft
Symboles :   Orages  Brouillard  Fortes neiges  Fortes précipitations  Vent > 20 kt
SIGMETs :   Divers  Orages  Givrage  Turbulence  Onde Orograph.  Cendres Volcan.






- Altitude de l'aérodrome : 74 ft
- Code IATA : LRH


LFBH - La Rochelle Ile de Ré

DERNIER METAR :
  • 172030Z AUTO 27008KT 9999 SCT041 08/04 Q1029 NOSIG

METARs EXPIRÉS :
  • 172000Z AUTO 28010KT CAVOK 08/03 Q1029 TEMPO 30015G25KT 4000 -SHRA FEW025CB BKN030TCU
  • 171930Z AUTO 27008KT 9999 FEW041 SCT048 08/04 Q1029 TEMPO 30015G25KT 4000 -SHRA FEW025CB BKN030TCU
  • 171900Z AUTO 26006KT 9999 FEW042 08/04 Q1028 TEMPO 30015G25KT 4000 -SHRA FEW025CB BKN030TCU
  • 171830Z AUTO 29010KT 9999 ///TCU 08/04 Q1028 TEMPO 30015G25KT 4000 -SHRA FEW025CB BKN030TCU

TAF TAF LFBH
Valide du 17 à 18h jusqu'au 18 à 18h UTC


171700Z 1718/1818 30010KT 9999 SCT030
PROB40
TEMPO 1718/1721 30015G25KT 4000 -SHRA FEW025CB BKN030TCU
BECMG 1721/1723 CAVOK
BECMG 1805/1807 14010KT
BECMG 1816/1818 06010KT
ATIS : +33 5 46 00 13 92



MET'MAP, la Météo Aéronautique d'un coup d'oeil ! - Copyright ORBIFLY Décembre 2007 - Disclaimer

ORBIFLY MET'MAP TEAM :

Programmation & Développement : Alexandra Zaïnal
Sur une idée originale de : Baudouin d'Aumeries
Assistance à la programmation : Marc-Olivier Méhu
Soutien technique & logistique : Manuel Goepfert

Contact : metmap@orbifly.com




SOURCES & CREDITS :

   NOAA